Time Latitude Longitude Accuracy (66% radius in meters) Altitude (meters) Speed (km/hour) Bearing (degrees) Battery (%) GPS flag
09:34:00 55.944043 38.068145 2.5 175.89999389648 0 0 70 1 delete
09:33:48 55.944043 38.068145 2 175.89999389648 0 0 70 1 delete
09:33:39 55.944043 38.068145 2 175.89999389648 0 0 70 1 delete
09:33:27 55.944043 38.068145 1.5 175.89999389648 0 0 70 1 delete
09:33:18 55.944043 38.068145 1.5 175.89999389648 0 0 70 1 delete
09:33:06 55.944043 38.068145 1.5 175.89999389648 0 0 70 1 delete
09:32:57 55.944043 38.068145 1.5 175.89999389648 0 0 70 1 delete
09:32:45 55.944043 38.068145 1.5 175.89999389648 0 0 70 1 delete
09:32:36 55.944043 38.068145 1.5 175.89999389648 0 0 70 1 delete
09:32:27 55.944043 38.068145 2 175.89999389648 0 0 70 1 delete
09:32:21 55.944034 38.068123 2 179.89999389648 0.099999994039536 277.66296386719 70 1 delete
09:32:15 55.944036 38.068111 2.5 181.5 0 0 70 1 delete
09:32:06 55.944036 38.068111 2.5 181.5 0 0 70 1 delete
09:31:54 55.944036 38.068111 2 181.5 0 0 70 1 delete
09:31:45 55.944036 38.068111 2 181.5 0 0 70 1 delete
09:31:33 55.944036 38.068111 2.5 181.5 0 0 70 1 delete
09:31:24 55.944036 38.068111 2 181.5 0 0 70 1 delete
09:31:12 55.944033 38.068104 3 181.69999694824 0.45999997854233 85.281372070312 70 1 delete
09:31:03 55.944024 38.068071 2.5 182.10000610352 0.37000000476837 59.474487304688 70 1 delete
09:30:54 55.944018 38.068043 3 181.80000305176 0.19999998807907 71.78466796875 70 1 delete
09:30:45 55.943992 38.067961 2.5 182.69999694824 0.41999998688698 73.218383789062 70 1 delete
09:30:42 55.943990 38.067933 2.5 183.10000610352 0.81999999284744 75.750732421875 70 1 delete
09:30:36 55.943971 38.067871 2.5 182.39999389648 0.85999995470047 92.252197265625 70 1 delete
09:30:30 55.943954 38.067768 2.5 182.5 1.6999999284744 79.573974609375 70 1 delete
09:30:27 55.943934 38.067695 2.5 182.69999694824 1.5999999046326 54.810791015625 70 1 delete
09:30:21 55.943925 38.067585 2 183.69999694824 0.59999996423721 118.68530273438 70 1 delete
09:30:18 55.943896 38.067520 2 185.39999389648 4.6199998855591 46.082153320312 70 1 delete
09:30:15 55.943737 38.067296 2.5 189.19999694824 5.1399998664856 4.669189453125 70 1 delete
09:30:12 55.943579 38.067235 2.5 190.30000305176 4.9000000953674 23.516235351562 70 1 delete
09:30:09 55.943437 38.067038 3 192 3.2999999523163 56.244506835938 70 1 delete
09:30:06 55.943396 38.066896 3.5 191.10000610352 1.4800000190735 69.362182617188 70 1 delete
09:30:03 55.943357 38.066841 3 191.19999694824 1.0499999523163 16.419067382812 70 1 delete
09:30:00 55.943284 38.066796 2.5 190.60000610352 3 354.28161621094 70 1 delete
09:29:57 55.943147 38.066856 2 192 3.9199998378754 337.03857421875 70 1 delete
09:29:54 55.943040 38.066930 2.5 191.39999389648 3.9800000190735 335.95642089844 70 1 delete
09:29:51 55.942873 38.067012 2.5 194.69999694824 4.0799999237061 336.43981933594 70 1 delete
09:29:48 55.942745 38.067097 3 195.30000305176 3.3299999237061 333.02856445312 70 1 delete
09:29:45 55.942647 38.067161 3 195.60000610352 3.3499999046326 344.61364746094 70 1 delete
09:29:42 55.942537 38.067177 3 195.19999694824 2.9199998378754 352.10632324219 70 1 delete
09:29:36 55.942426 38.067166 3 193.89999389648 1.0199999809265 87.56103515625 70 1 delete
09:29:33 55.942471 38.067016 3 193.69999694824 3.8199999332428 126.78771972656 70 1 delete
09:29:30 55.942489 38.066749 3 196.69999694824 2.7300000190735 117.40539550781 70 1 delete
09:29:27 55.942457 38.066586 2.5 197 3.1099998950958 54.860229492188 70 1 delete
09:29:24 55.942392 38.066485 2.5 197 2.4199998378754 38.051147460938 70 1 delete
09:29:21 55.942348 38.066415 2 197 0.87000000476837 17.633056640625 70 1 delete
09:29:18 55.942303 38.066399 2 198 3.3799998760223 10.1513671875 70 1 delete
09:29:15 55.942182 38.066387 2.5 199.10000610352 4.1700000762939 355.30334472656 70 1 delete
09:29:12 55.942058 38.066372 2.5 200.10000610352 4.1500000953674 9.140625 70 1 delete
09:29:09 55.941939 38.066271 2.5 203 3.8099999427795 8.349609375 70 1 delete
09:29:06 55.941840 38.066179 3 203.10000610352 3.2699999809265 25.3125 70 1 delete